Time;durP1;ratioP1;P1;durP2;ratioP2;P2;SDS_P1;SDS_P2;PMS_P1;PMS_P2;Temp;Humidity;BMP_temperature;BMP_pressure;BME280_temperature;BME280_humidity;BME280_pressure;Samples;Min_cycle;Max_cycle;Signal;HPM_P1;HPM_P2
2022/11/01 00:01:11;;;;;;;15.47;8.17;;;;;;;16.81;44.73;101735.41;4993981;28;20743;-79
2022/11/01 00:03:36;;;;;;;14.02;8.40;;;;;;;16.73;44.78;101739.03;4991795;28;20483;-78
2022/11/01 00:06:02;;;;;;;14.80;8.53;;;;;;;16.73;44.54;101738.19;4993458;28;20382;-77
2022/11/01 00:08:28;;;;;;;15.55;7.97;;;;;;;16.63;44.86;101736.59;4993785;28;20501;-78
2022/11/01 00:11:04;;;;;;;14.13;7.30;;;;;;;16.51;44.87;101734.56;4993651;28;20405;-79
2022/11/01 00:13:29;;;;;;;14.73;7.57;;;;;;;16.45;45.17;101738.81;4994208;28;20385;-78
2022/11/01 00:15:55;;;;;;;14.68;7.43;;;;;;;16.38;45.37;101738.72;4993205;28;20790;-78
2022/11/01 00:18:20;;;;;;;14.60;7.63;;;;;;;16.43;45.15;101732.81;4992026;28;20858;-78
2022/11/01 00:20:45;;;;;;;13.80;7.38;;;;;;;16.40;45.23;101727.84;4992558;28;20378;-79
2022/11/01 00:23:11;;;;;;;18.03;8.63;;;;;;;16.37;45.68;101731.72;4994644;28;20421;-79
2022/11/01 00:25:37;;;;;;;16.27;8.13;;;;;;;16.31;45.79;101731.63;4995161;28;20459;-79
2022/11/01 00:28:02;;;;;;;17.07;9.43;;;;;;;16.29;45.94;101729.13;4995298;28;20416;-79
2022/11/01 00:30:27;;;;;;;15.32;7.57;;;;;;;16.29;45.74;101725.63;4995707;28;20429;-79
2022/11/01 00:32:55;;;;;;;16.20;9.57;;;;;;;16.31;46.16;101727.09;4995233;28;20385;-79
2022/11/01 00:35:21;;;;;;;15.27;8.43;;;;;;;16.41;45.86;101724.16;4993795;28;20409;-78
2022/11/01 00:37:46;;;;;;;13.60;8.55;;;;;;;16.48;45.63;101726.94;4992625;28;20389;-78
2022/11/01 00:40:12;;;;;;;15.53;8.50;;;;;;;16.59;45.37;101723.78;4993463;28;20388;-78
2022/11/01 00:42:37;;;;;;;14.67;8.33;;;;;;;16.68;44.96;101733.38;4994028;28;20410;-80
2022/11/01 00:45:04;;;;;;;13.17;8.13;;;;;;;16.78;44.61;101730.41;4995251;28;20381;-79
2022/11/01 00:47:29;;;;;;;13.50;9.07;;;;;;;16.82;44.39;101727.19;4994865;28;20444;-79
2022/11/01 00:49:55;;;;;;;14.95;9.50;;;;;;;16.78;44.53;101733.09;4993928;28;20382;-80
2022/11/01 00:52:20;;;;;;;19.17;9.90;;;;;;;16.90;44.18;101737.00;4993541;28;20393;-79
2022/11/01 00:54:45;;;;;;;15.77;9.10;;;;;;;16.97;44.18;101731.72;4993630;28;21181;-80
2022/11/01 00:57:11;;;;;;;16.40;8.83;;;;;;;16.82;44.15;101735.22;4995019;28;20391;-79
2022/11/01 00:59:36;;;;;;;16.30;8.80;;;;;;;16.71;44.41;101729.50;4996816;28;20462;-80
2022/11/01 01:02:02;;;;;;;15.40;9.20;;;;;;;16.57;44.71;101723.16;4993341;28;20389;-80
2022/11/01 01:04:27;;;;;;;15.23;8.73;;;;;;;16.59;44.78;101729.97;5014351;28;20414;-79
2022/11/01 01:06:53;;;;;;;14.07;8.07;;;;;;;16.43;45.09;101730.16;4999342;28;20469;-80
2022/11/01 01:09:18;;;;;;;15.83;8.43;;;;;;;16.30;45.55;101729.97;4999035;28;20382;-80
2022/11/01 01:11:44;;;;;;;20.42;10.10;;;;;;;16.22;45.93;101731.72;4999302;28;20780;-79
2022/11/01 01:14:10;;;;;;;15.33;8.93;;;;;;;16.21;45.77;101735.38;4993271;28;20383;-78
2022/11/01 01:16:36;;;;;;;13.93;8.85;;;;;;;16.20;45.69;101740.91;4990414;28;20876;-79
2022/11/01 01:19:01;;;;;;;16.80;8.10;;;;;;;16.13;45.92;101739.97;4980185;28;20401;-80
2022/11/01 01:21:27;;;;;;;16.38;8.52;;;;;;;16.10;46.26;101737.66;5003048;28;20420;-79
2022/11/01 01:23:53;;;;;;;17.57;9.73;;;;;;;16.03;46.19;101743.75;4997124;28;20401;-79
2022/11/01 01:26:19;;;;;;;19.10;9.47;;;;;;;15.96;46.33;101736.63;5013556;28;20491;-79
2022/11/01 01:28:45;;;;;;;16.30;8.57;;;;;;;15.86;46.47;101737.72;4998287;28;20389;-79
2022/11/01 01:31:11;;;;;;;18.67;9.53;;;;;;;15.88;46.48;101742.03;4998104;28;20392;-79
2022/11/01 01:33:37;;;;;;;12.18;8.10;;;;;;;15.81;46.45;101741.91;4998761;28;20409;-81
2022/11/01 01:36:05;;;;;;;13.90;8.05;;;;;;;15.66;46.93;101747.19;4997910;28;20386;-78
2022/11/01 01:38:30;;;;;;;15.25;8.02;;;;;;;15.52;47.01;101748.81;4995726;28;20888;-78
2022/11/01 01:41:54;;;;;;;17.98;9.60;;;;;;;15.28;48.06;101755.94;4994737;28;20377;-78
2022/11/01 01:43:44;;;;;;;19.45;10.43;;;;;;;15.25;48.35;101758.13;4995550;28;20413;-78
2022/11/01 01:46:10;;;;;;;20.97;10.83;;;;;;;15.15;49.18;101753.00;4995279;28;20398;-78
2022/11/01 01:48:37;;;;;;;19.00;12.40;;;;;;;15.10;49.50;101758.84;4997873;28;20481;-79
2022/11/01 01:51:07;;;;;;;18.38;12.13;;;;;;;14.97;49.97;101758.59;4999094;28;20865;-79
2022/11/01 01:53:36;;;;;;;17.98;12.98;;;;;;;14.79;50.96;101764.16;4999631;28;20377;-79
2022/11/01 01:56:13;;;;;;;23.60;14.52;;;;;;;14.59;51.62;101768.25;4999276;28;20422;-79
2022/11/01 01:58:53;;;;;;;22.35;14.70;;;;;;;14.42;52.45;101762.06;4997056;28;20459;-79
2022/11/01 02:01:19;;;;;;;22.13;15.50;;;;;;;14.33;52.78;101767.44;4998597;28;20508;-79
2022/11/01 02:03:45;;;;;;;24.97;15.70;;;;;;;14.30;52.71;101765.09;4998797;28;20409;-79
2022/11/01 02:06:13;;;;;;;21.52;14.98;;;;;;;14.27;52.92;101765.41;4998564;28;20870;-78
2022/11/01 02:08:43;;;;;;;26.50;15.75;;;;;;;14.15;53.28;101767.59;5000320;28;20463;-77
2022/11/01 02:11:10;;;;;;;28.33;15.47;;;;;;;14.16;53.69;101773.75;5001254;28;20465;-77
2022/11/01 02:13:37;;;;;;;20.73;14.38;;;;;;;14.18;53.32;101774.44;5000499;28;20753;-77
2022/11/01 02:16:02;;;;;;;24.40;15.18;;;;;;;14.21;52.77;101774.09;5001163;28;20390;-78
2022/11/01 02:18:40;;;;;;;22.20;13.73;;;;;;;14.16;53.24;101779.09;5000295;28;20435;-78
2022/11/01 02:21:24;;;;;;;19.90;13.50;;;;;;;14.19;53.22;101781.44;5000324;28;20877;-78
2022/11/01 02:23:50;;;;;;;26.20;15.80;;;;;;;14.21;53.41;101778.63;4998421;28;20410;-79
2022/11/01 02:26:47;;;;;;;23.10;15.97;;;;;;;14.18;53.58;101779.75;4999707;28;20386;-77
2022/11/01 02:29:37;;;;;;;22.17;14.48;;;;;;;14.17;53.76;101790.59;5000371;28;20730;-78
2022/11/01 02:32:03;;;;;;;21.90;15.40;;;;;;;14.04;53.87;101789.25;4996067;28;20386;-78
2022/11/01 02:34:37;;;;;;;21.80;14.70;;;;;;;14.07;54.11;101796.94;4996483;28;20432;-77
2022/11/01 02:37:22;;;;;;;24.33;14.88;;;;;;;14.10;53.99;101801.94;4999122;28;20382;-78
2022/11/01 02:39:52;;;;;;;24.10;15.77;;;;;;;14.06;54.10;101807.75;5000954;28;20382;-78
2022/11/01 02:42:28;;;;;;;26.77;16.75;;;;;;;14.03;54.41;101808.09;5000512;28;20386;-78
2022/11/01 02:45:07;;;;;;;26.70;16.05;;;;;;;14.05;54.51;101803.44;4997274;28;20386;-77
2022/11/01 02:47:33;;;;;;;23.77;16.95;;;;;;;14.09;54.71;101810.91;4998083;28;20514;-77
2022/11/01 02:50:03;;;;;;;22.75;15.52;;;;;;;14.05;54.81;101809.59;4998279;28;20964;-77
2022/11/01 02:52:31;;;;;;;23.33;15.95;;;;;;;14.07;54.57;101820.09;4999996;28;20420;-77
2022/11/01 02:54:59;;;;;;;23.95;15.50;;;;;;;14.05;54.79;101814.94;5010933;28;20397;-77
2022/11/01 02:57:25;;;;;;;20.98;15.32;;;;;;;14.10;54.65;101819.78;5004298;28;20896;-77
2022/11/01 02:59:50;;;;;;;26.67;15.80;;;;;;;14.09;54.21;101826.91;5004288;28;20408;-77
2022/11/01 03:02:38;;;;;;;22.85;15.75;;;;;;;14.13;53.91;101822.09;4994746;28;20388;-77
2022/11/01 03:05:16;;;;;;;22.83;15.97;;;;;;;14.20;54.17;101835.59;5002037;28;20600;-78
2022/11/01 03:07:47;;;;;;;23.77;15.60;;;;;;;14.30;53.38;101831.75;4996456;28;20410;-78
2022/11/01 03:10:13;;;;;;;26.10;15.35;;;;;;;14.25;53.88;101831.44;5007469;28;20386;-78
2022/11/01 03:12:58;;;;;;;21.27;15.20;;;;;;;14.24;53.64;101828.94;5010207;28;20407;-79
2022/11/01 03:15:29;;;;;;;25.85;16.45;;;;;;;14.27;53.26;101834.75;4998238;28;20385;-79
2022/11/01 03:18:03;;;;;;;23.60;15.70;;;;;;;14.28;53.50;101844.44;4997889;28;20879;-79
2022/11/01 03:20:46;;;;;;;23.17;15.70;;;;;;;14.27;53.12;101842.75;4995987;28;20425;-77
2022/11/01 03:23:17;;;;;;;23.50;15.10;;;;;;;14.29;53.17;101850.59;4993224;28;20894;-79
2022/11/01 03:25:49;;;;;;;20.88;14.93;;;;;;;14.32;52.83;101850.28;4997308;28;20378;-79
2022/11/01 03:28:27;;;;;;;26.42;15.85;;;;;;;14.18;53.38;101851.75;4994423;28;20400;-78
2022/11/01 03:30:58;;;;;;;24.02;15.13;;;;;;;14.00;54.27;101859.91;4995032;28;21134;-78
2022/11/01 03:33:26;;;;;;;23.90;16.05;;;;;;;13.94;54.50;101866.72;4994254;28;20385;-78
2022/11/01 03:35:56;;;;;;;22.48;14.88;;;;;;;13.91;54.85;101868.91;4989812;28;20478;-78
2022/11/01 03:38:29;;;;;;;24.48;16.27;;;;;;;13.89;54.69;101869.06;4994564;28;20420;-79
2022/11/01 03:41:01;;;;;;;22.85;16.15;;;;;;;13.86;54.80;101868.53;4992306;28;20424;-78
2022/11/01 03:43:30;;;;;;;26.17;15.97;;;;;;;13.94;54.19;101871.25;4994105;28;20405;-78
2022/11/01 03:45:56;;;;;;;25.65;16.48;;;;;;;13.94;54.07;101876.56;4993456;28;20857;-78
2022/11/01 03:48:21;;;;;;;25.88;15.30;;;;;;;13.83;54.18;101876.84;4990931;28;20404;-78
2022/11/01 03:50:51;;;;;;;24.83;15.40;;;;;;;13.79;54.23;101875.53;4995091;28;20732;-78
2022/11/01 03:53:17;;;;;;;21.80;15.70;;;;;;;13.81;54.65;101882.38;4994230;28;20390;-77
2022/11/01 03:55:43;;;;;;;25.07;16.87;;;;;;;13.83;54.36;101875.03;4994372;28;20397;-79
2022/11/01 03:58:09;;;;;;;22.58;15.75;;;;;;;13.83;54.26;101882.19;5030461;28;20477;-78
2022/11/01 04:00:43;;;;;;;23.58;16.02;;;;;;;13.80;54.10;101887.88;5009428;28;20409;-78
2022/11/01 04:03:10;;;;;;;22.50;15.48;;;;;;;13.72;53.89;101883.31;5009535;28;20426;-79
2022/11/01 04:05:38;;;;;;;24.77;15.70;;;;;;;13.70;53.91;101883.50;5019480;28;20479;-80
2022/11/01 04:08:04;;;;;;;23.55;15.32;;;;;;;13.72;54.16;101900.16;4994552;28;20391;-80
2022/11/01 04:10:29;;;;;;;24.08;16.08;;;;;;;13.60;54.51;101893.47;5016066;28;20388;-79
2022/11/01 04:12:56;;;;;;;23.60;15.73;;;;;;;13.51;54.85;101892.59;5036877;28;20390;-78
2022/11/01 04:21:09;;;;;;;24.57;15.43;;;;;;;13.55;54.61;101893.09;5015349;28;20408;-79
2022/11/01 04:23:35;;;;;;;22.30;15.30;;;;;;;13.51;54.36;101895.25;5009656;28;20460;-79
2022/11/01 04:26:01;;;;;;;28.77;16.67;;;;;;;13.54;54.49;101902.06;5013134;28;20378;-79
2022/11/01 04:28:27;;;;;;;26.38;16.13;;;;;;;13.52;54.06;101896.94;5016908;28;20879;-79
2022/11/01 04:30:52;;;;;;;24.42;14.52;;;;;;;13.54;54.13;101904.75;5015599;28;20384;-79
2022/11/01 04:33:19;;;;;;;24.05;16.00;;;;;;;13.57;53.82;101899.91;5007319;28;20397;-78
2022/11/01 04:35:45;;;;;;;21.77;15.60;;;;;;;13.55;53.97;101901.91;5008223;28;20898;-78
2022/11/01 04:38:11;;;;;;;26.80;16.43;;;;;;;13.59;53.84;101910.44;5000588;28;20387;-76
2022/11/01 04:40:37;;;;;;;21.40;14.97;;;;;;;13.50;54.15;101912.22;5011362;28;20865;-78
2022/11/01 04:43:02;;;;;;;23.67;16.00;;;;;;;13.45;54.33;101922.53;5004343;28;20505;-79
2022/11/01 04:45:28;;;;;;;26.98;17.63;;;;;;;13.38;54.18;101910.84;5007034;28;20401;-79
2022/11/01 04:48:20;;;;;;;27.70;17.52;;;;;;;13.39;54.53;101916.00;5009252;28;20415;-78
2022/11/01 04:50:46;;;;;;;29.67;17.42;;;;;;;13.44;54.17;101920.84;5005895;28;20398;-77
2022/11/01 04:53:11;;;;;;;26.33;17.63;;;;;;;13.44;54.01;101917.38;5008167;28;20390;-78
2022/11/01 04:55:37;;;;;;;26.35;18.95;;;;;;;13.50;53.82;101924.72;5008213;28;20410;-77
2022/11/01 04:58:09;;;;;;;25.00;16.13;;;;;;;13.52;53.68;101931.56;5000018;28;20382;-79
2022/11/01 05:00:35;;;;;;;25.55;16.55;;;;;;;13.50;53.33;101922.03;5017414;28;20425;-78
2022/11/01 05:03:03;;;;;;;25.05;17.02;;;;;;;13.55;53.07;101933.88;5001622;28;20409;-78
2022/11/01 05:05:29;;;;;;;27.53;16.97;;;;;;;13.49;53.32;101929.22;5007264;28;20385;-78
2022/11/01 05:08:03;;;;;;;25.13;18.27;;;;;;;13.45;53.47;101933.19;5006012;28;20420;-80
2022/11/01 05:10:29;;;;;;;28.05;18.10;;;;;;;13.40;53.43;101930.16;5004659;28;20383;-79
2022/11/01 05:12:55;;;;;;;36.65;20.20;;;;;;;13.28;54.32;101934.06;5006763;28;20392;-79
2022/11/01 05:15:24;;;;;;;26.77;19.43;;;;;;;13.18;54.50;101940.34;5022633;28;20508;-79
2022/11/01 05:17:50;;;;;;;26.67;18.57;;;;;;;13.23;54.75;101942.50;5005056;28;20410;-78
2022/11/01 05:20:16;;;;;;;26.00;17.57;;;;;;;13.22;54.34;101932.00;5005123;28;20401;-79
2022/11/01 05:22:41;;;;;;;26.07;16.43;;;;;;;13.22;54.52;101942.66;5004748;28;20428;-79
2022/11/01 05:25:08;;;;;;;30.03;17.90;;;;;;;13.36;54.47;101942.97;5012493;28;20431;-79
2022/11/01 05:27:36;;;;;;;29.35;18.70;;;;;;;13.46;53.96;101940.16;5005287;28;20416;-79
2022/11/01 05:30:02;;;;;;;28.13;17.93;;;;;;;13.37;53.98;101949.13;5008898;28;20788;-80
2022/11/01 05:32:28;;;;;;;28.33;17.75;;;;;;;13.31;54.02;101942.59;5012462;28;20381;-80
2022/11/01 05:34:54;;;;;;;34.50;17.38;;;;;;;13.37;53.90;101949.13;5010405;28;20376;-79
2022/11/01 05:37:19;;;;;;;28.63;17.10;;;;;;;13.44;53.83;101957.31;4996842;28;20446;-78
2022/11/01 05:39:45;;;;;;;26.13;17.30;;;;;;;13.44;53.41;101960.81;5014585;28;20380;-79
2022/11/01 05:42:11;;;;;;;26.92;16.33;;;;;;;13.41;53.59;101963.78;5006174;28;20379;-78
2022/11/01 05:44:37;;;;;;;20.90;14.95;;;;;;;13.44;53.69;101963.47;5007189;28;20408;-79
2022/11/01 05:47:04;;;;;;;22.43;15.50;;;;;;;13.47;53.38;101971.16;5008477;28;20390;-79
2022/11/01 05:49:30;;;;;;;25.50;16.25;;;;;;;13.32;54.14;101970.88;5003812;28;20386;-79
2022/11/01 05:51:55;;;;;;;29.00;16.42;;;;;;;13.25;54.13;101959.16;5006342;28;21158;-78
2022/11/01 05:54:21;;;;;;;28.00;15.35;;;;;;;13.31;54.11;101971.91;4998213;28;20378;-79
2022/11/01 05:56:46;;;;;;;25.73;15.93;;;;;;;13.34;54.16;101981.38;5011451;28;20388;-79
2022/11/01 05:59:12;;;;;;;28.20;16.15;;;;;;;13.42;54.01;101981.44;5010840;28;20465;-77
2022/11/01 06:01:37;;;;;;;29.40;16.80;;;;;;;13.42;53.75;101977.97;5039839;28;20397;-79
2022/11/01 06:04:03;;;;;;;26.63;17.15;;;;;;;13.51;53.61;101991.16;5009843;28;20468;-79
2022/11/01 06:06:29;;;;;;;29.23;19.23;;;;;;;13.61;53.14;101988.34;5001401;28;20386;-78
2022/11/01 06:08:56;;;;;;;29.65;18.95;;;;;;;13.66;53.03;101993.22;4992206;28;20385;-79
2022/11/01 06:11:23;;;;;;;28.83;19.00;;;;;;;13.67;53.32;101994.91;5021957;28;20386;-79
2022/11/01 06:13:58;;;;;;;29.83;19.02;;;;;;;13.66;53.28;101995.91;5005515;28;20437;-80
2022/11/01 06:16:27;;;;;;;31.63;20.08;;;;;;;13.66;53.64;102003.88;5007401;28;20384;-79
2022/11/01 06:18:53;;;;;;;35.92;21.05;;;;;;;13.56;53.64;101996.84;5007735;28;20397;-79
2022/11/01 06:21:21;;;;;;;29.90;17.15;;;;;;;13.56;54.07;101996.84;5001272;28;20740;-80
2022/11/01 06:23:49;;;;;;;25.13;16.70;;;;;;;13.60;54.03;102002.69;5007000;28;20414;-79
2022/11/01 06:26:15;;;;;;;27.80;17.05;;;;;;;13.68;53.91;102004.56;5023194;28;20382;-79
2022/11/01 06:28:41;;;;;;;28.63;16.67;;;;;;;13.73;53.90;102008.41;5009328;28;20473;-80
2022/11/01 06:31:07;;;;;;;28.43;16.97;;;;;;;13.87;53.60;102016.81;5011812;28;20404;-79
2022/11/01 06:33:35;;;;;;;27.65;16.70;;;;;;;14.04;53.19;102020.38;5016438;28;20382;-80
2022/11/01 06:36:01;;;;;;;31.58;17.05;;;;;;;14.15;52.88;102023.59;5009630;28;20476;-78
2022/11/01 06:38:26;;;;;;;27.15;17.65;;;;;;;14.12;52.95;102018.59;5009917;28;20386;-79
2022/11/01 06:40:52;;;;;;;26.90;16.52;;;;;;;14.15;53.05;102020.09;4997831;28;20382;-79
2022/11/01 06:43:18;;;;;;;28.63;16.43;;;;;;;14.25;53.16;102018.13;5027318;28;20401;-79
2022/11/01 06:45:43;;;;;;;30.25;16.23;;;;;;;14.25;53.42;102018.13;5012253;28;20451;-78
2022/11/01 06:48:09;;;;;;;24.60;16.17;;;;;;;14.30;53.50;102022.97;5012546;28;20400;-79
2022/11/01 06:50:34;;;;;;;27.13;15.63;;;;;;;14.29;53.60;102022.13;4992788;28;20458;-79
2022/11/01 06:53:00;;;;;;;27.40;16.48;;;;;;;14.52;52.97;102024.19;5008816;28;21071;-78
2022/11/01 06:55:27;;;;;;;28.25;18.17;;;;;;;14.68;52.71;102023.41;5007246;28;20449;-78
2022/11/01 06:57:58;;;;;;;27.02;17.02;;;;;;;14.68;52.88;102024.25;5007942;28;20390;-78
2022/11/01 07:00:25;;;;;;;23.75;14.70;;;;;;;14.81;52.65;102030.94;5008686;28;20445;-80
2022/11/01 07:03:03;;;;;;;24.83;15.48;;;;;;;14.81;52.85;102038.94;5007735;28;20421;-80
2022/11/01 07:05:31;;;;;;;23.80;15.65;;;;;;;14.74;52.95;102037.94;5005056;28;20383;-78
2022/11/01 07:07:57;;;;;;;26.00;15.65;;;;;;;14.84;53.03;102035.97;5019766;28;20415;-79
2022/11/01 07:10:24;;;;;;;23.55;15.38;;;;;;;14.94;52.86;102041.94;5004743;28;20378;-81
2022/11/01 07:12:49;;;;;;;23.20;15.33;;;;;;;14.90;53.07;102036.09;5008635;28;20378;-79
2022/11/01 07:15:17;;;;;;;22.85;15.57;;;;;;;14.92;52.66;102030.59;5004908;28;20374;-78
2022/11/01 07:17:44;;;;;;;22.67;15.10;;;;;;;15.03;52.69;102034.78;4992705;28;20390;-79
2022/11/01 07:20:10;;;;;;;26.90;15.80;;;;;;;15.16;52.54;102035.13;4995502;28;20460;-79
2022/11/01 07:22:35;;;;;;;25.55;15.88;;;;;;;15.21;52.44;102029.25;5021163;28;20449;-80
2022/11/01 07:25:01;;;;;;;23.57;17.57;;;;;;;15.23;52.54;102030.78;5007117;28;20385;-78
2022/11/01 07:27:28;;;;;;;22.92;16.02;;;;;;;15.24;52.30;102037.78;5008147;28;20437;-78
2022/11/01 07:29:53;;;;;;;26.42;15.65;;;;;;;15.38;52.18;102036.28;5018647;28;20479;-78
2022/11/01 07:32:19;;;;;;;25.47;15.70;;;;;;;15.45;52.11;102031.91;5002560;28;20383;-80
2022/11/01 07:34:44;;;;;;;26.00;15.93;;;;;;;15.59;51.79;102030.38;5007259;28;20441;-79
2022/11/01 07:37:10;;;;;;;23.40;15.70;;;;;;;15.70;51.47;102017.66;5012761;28;20417;-81
2022/11/01 07:39:35;;;;;;;25.40;16.00;;;;;;;15.60;51.78;102026.69;5010870;28;20386;-79
2022/11/01 07:42:01;;;;;;;25.10;15.67;;;;;;;15.55;52.31;102018.34;5023691;28;20464;-77
2022/11/01 07:44:26;;;;;;;23.20;16.43;;;;;;;15.60;52.09;102028.53;5008983;28;20405;-77
2022/11/01 07:46:53;;;;;;;24.60;16.47;;;;;;;15.72;51.96;102018.31;5012979;28;20393;-79
2022/11/01 07:49:18;;;;;;;25.85;16.27;;;;;;;15.86;51.80;102031.00;5016245;28;20385;-78
2022/11/01 07:51:44;;;;;;;28.10;16.67;;;;;;;15.81;51.84;102017.28;5007015;28;20481;-78
2022/11/01 07:54:12;;;;;;;26.57;16.23;;;;;;;15.87;51.73;102021.97;5008178;28;20392;-81
2022/11/01 07:56:37;;;;;;;28.75;17.00;;;;;;;16.01;51.33;102025.78;5031207;28;20436;-79
2022/11/01 07:59:03;;;;;;;23.37;16.33;;;;;;;15.98;51.57;102028.78;5030171;28;20393;-77
2022/11/01 08:01:28;;;;;;;25.23;17.10;;;;;;;15.93;51.79;102015.09;5015952;28;20404;-79
2022/11/01 08:03:54;;;;;;;25.83;17.03;;;;;;;16.11;51.55;102015.66;5018873;28;20427;-83
2022/11/01 08:06:21;;;;;;;25.20;17.23;;;;;;;16.15;51.36;102016.16;5019388;28;20503;-81
2022/11/01 08:08:47;;;;;;;25.70;17.17;;;;;;;16.19;51.41;102012.16;4996974;28;20380;-81
2022/11/01 08:11:14;;;;;;;26.02;18.02;;;;;;;16.23;51.38;102011.59;5030990;28;20419;-79
2022/11/01 08:13:40;;;;;;;25.92;18.08;;;;;;;16.28;51.25;102004.88;5028397;28;20419;-80
2022/11/01 08:16:06;;;;;;;25.52;18.02;;;;;;;16.38;51.13;102008.16;4978402;28;20400;-79
2022/11/01 08:18:31;;;;;;;29.17;16.98;;;;;;;16.40;51.46;101998.97;5027168;28;20399;-79
2022/11/01 08:20:58;;;;;;;24.37;17.03;;;;;;;16.37;51.37;102006.53;5024983;28;20824;-79
2022/11/01 08:23:24;;;;;;;24.40;16.95;;;;;;;16.48;51.03;101998.09;5026685;28;20446;-80
2022/11/01 08:26:05;;;;;;;26.40;16.60;;;;;;;16.62;50.85;102000.00;5026085;28;20428;-80
2022/11/01 08:28:31;;;;;;;25.57;16.60;;;;;;;16.64;50.82;102005.16;5041939;28;20396;-81
2022/11/01 08:30:56;;;;;;;26.77;16.90;;;;;;;16.67;50.63;101994.09;5018246;28;20419;-81
2022/11/01 08:33:22;;;;;;;26.40;17.13;;;;;;;16.79;50.30;101997.19;4998014;28;20382;-79
2022/11/01 08:35:49;;;;;;;24.50;17.20;;;;;;;16.80;50.41;101998.88;5025564;28;20435;-79
2022/11/01 08:38:14;;;;;;;28.75;17.20;;;;;;;16.86;50.22;101994.66;5011461;28;20398;-83
2022/11/01 08:40:40;;;;;;;23.83;15.90;;;;;;;16.97;50.17;101995.03;5006823;28;20390;-80
2022/11/01 08:43:06;;;;;;;23.95;16.92;;;;;;;17.07;50.02;101999.31;5008462;28;20432;-80
2022/11/01 08:45:33;;;;;;;26.35;16.52;;;;;;;17.08;49.87;101995.63;5008997;28;20403;-81
2022/11/01 08:48:00;;;;;;;26.27;16.58;;;;;;;17.22;49.52;101992.16;4998790;28;20424;-79
2022/11/01 08:50:26;;;;;;;23.48;15.82;;;;;;;17.22;49.40;101980.59;5009359;28;20390;-80
2022/11/01 08:52:53;;;;;;;26.50;16.88;;;;;;;17.27;49.50;101984.41;5011762;28;20378;-79
2022/11/01 08:55:18;;;;;;;22.67;15.82;;;;;;;17.35;49.43;101986.16;5007198;28;20408;-81
2022/11/01 08:57:45;;;;;;;24.70;16.20;;;;;;;17.31;49.26;101987.53;5009237;28;20390;-81
2022/11/01 09:00:12;;;;;;;22.67;15.98;;;;;;;17.43;49.02;101979.84;5011471;28;20407;-81
2022/11/01 09:02:38;;;;;;;24.48;16.13;;;;;;;17.55;48.87;101979.22;5008375;28;20404;-80
2022/11/01 09:05:05;;;;;;;27.10;16.83;;;;;;;17.68;48.59;101983.09;5005703;28;20382;-81
2022/11/01 09:07:33;;;;;;;28.70;15.80;;;;;;;17.68;48.53;101973.22;5008464;28;20385;-81
2022/11/01 09:09:59;;;;;;;22.30;15.00;;;;;;;17.85;48.27;101973.00;5007962;28;20408;-81
2022/11/01 09:12:25;;;;;;;25.17;15.90;;;;;;;17.90;48.26;101965.28;5006693;28;20389;-81
2022/11/01 09:14:51;;;;;;;24.85;14.93;;;;;;;17.92;48.22;101972.09;5007076;28;20385;-80
2022/11/01 09:17:18;;;;;;;25.38;15.18;;;;;;;18.01;48.06;101972.00;5007275;28;20381;-80
2022/11/01 09:19:45;;;;;;;19.97;14.83;;;;;;;18.07;47.69;101966.69;5020254;28;20401;-79
2022/11/01 09:22:11;;;;;;;23.45;15.27;;;;;;;18.12;47.52;101968.81;5012752;28;20445;-80
2022/11/01 09:24:36;;;;;;;24.92;15.13;;;;;;;18.17;47.21;101969.09;5017146;28;20483;-79
2022/11/01 09:27:02;;;;;;;23.90;15.27;;;;;;;18.21;47.29;101969.53;5014845;28;20410;-81
2022/11/01 09:29:31;;;;;;;21.42;14.80;;;;;;;18.28;47.27;101959.72;5015645;28;20388;-81
2022/11/01 09:31:57;;;;;;;23.77;14.75;;;;;;;18.37;47.16;101968.47;5027723;28;20410;-79
2022/11/01 09:34:23;;;;;;;22.77;14.63;;;;;;;18.33;46.74;101958.09;5010518;28;20394;-79
2022/11/01 09:36:48;;;;;;;23.87;14.43;;;;;;;18.40;46.69;101955.50;5028889;28;20415;-79
2022/11/01 09:39:19;;;;;;;23.73;14.60;;;;;;;18.50;46.71;101953.31;5030726;28;20823;-81
2022/11/01 09:41:50;;;;;;;21.40;14.50;;;;;;;18.49;46.53;101951.66;4980841;28;20388;-81
2022/11/01 09:44:24;;;;;;;22.85;14.45;;;;;;;18.53;46.77;101944.88;5009647;28;20420;-81
2022/11/01 09:46:59;;;;;;;22.42;14.73;;;;;;;18.58;46.46;101946.13;4997535;28;20404;-82
2022/11/01 09:49:30;;;;;;;24.88;15.07;;;;;;;18.79;46.15;101939.91;5012323;28;20384;-79
2022/11/01 09:51:56;;;;;;;21.77;14.43;;;;;;;18.90;45.88;101934.84;5011727;28;20918;-83
2022/11/01 09:54:23;;;;;;;23.80;15.73;;;;;;;18.87;45.80;101932.59;5016081;28;20392;-81
2022/11/01 09:56:58;;;;;;;23.60;15.30;;;;;;;18.96;45.51;101927.91;5011895;28;20419;-81
2022/11/01 09:59:43;;;;;;;20.13;15.02;;;;;;;19.12;45.33;101931.28;5012898;28;20393;-81
2022/11/01 10:02:31;;;;;;;20.90;15.60;;;;;;;19.10;45.30;101921.59;5023288;28;20485;-82
2022/11/01 10:05:09;;;;;;;23.40;15.48;;;;;;;19.19;45.06;101903.41;5025667;28;20411;-82
2022/11/01 10:07:56;;;;;;;20.85;14.82;;;;;;;19.25;45.00;101907.19;4997901;28;20395;-78
2022/11/01 10:10:27;;;;;;;21.88;14.82;;;;;;;19.37;44.92;101894.00;5001715;28;20410;-82
2022/11/01 10:13:08;;;;;;;23.25;14.70;;;;;;;19.43;44.76;101898.59;5011296;28;20374;-81
2022/11/01 10:16:00;;;;;;;24.20;14.20;;;;;;;19.57;44.92;101896.78;5004509;28;20385;-80
2022/11/01 10:18:40;;;;;;;19.50;14.07;;;;;;;19.64;44.49;101889.56;5033319;28;20388;-80
2022/11/01 10:21:14;;;;;;;23.83;15.35;;;;;;;19.73;44.37;101887.53;5008861;28;20417;-80
2022/11/01 10:23:48;;;;;;;20.00;14.20;;;;;;;19.78;44.30;101885.91;5009179;28;20430;-79
2022/11/01 10:26:20;;;;;;;21.73;14.30;;;;;;;19.84;43.99;101881.59;5010970;28;20429;-80
2022/11/01 10:29:05;;;;;;;21.55;14.13;;;;;;;19.95;43.65;101874.78;5038820;28;20937;-80
2022/11/01 10:31:36;;;;;;;19.80;14.05;;;;;;;19.99;43.53;101879.56;5011947;28;20398;-83
2022/11/01 10:34:12;;;;;;;22.10;13.77;;;;;;;20.08;43.44;101868.59;5010695;28;20373;-81
2022/11/01 10:36:42;;;;;;;23.85;13.88;;;;;;;20.07;43.31;101862.38;5020917;28;20384;-79
2022/11/01 10:39:26;;;;;;;17.20;11.75;;;;;;;20.01;44.16;101863.22;5036569;28;20413;-81
2022/11/01 10:41:53;;;;;;;18.98;12.88;;;;;;;20.03;44.44;101861.97;5054522;28;20379;-80
2022/11/01 10:44:32;;;;;;;17.57;13.53;;;;;;;20.18;43.51;101867.16;5014551;28;20410;-80
2022/11/01 10:47:05;;;;;;;19.40;12.60;;;;;;;20.24;43.42;101855.56;5038905;28;20452;-79
2022/11/01 10:49:34;;;;;;;20.33;12.40;;;;;;;20.20;43.59;101848.09;5045195;28;20429;-81
2022/11/01 10:52:13;;;;;;;17.38;12.52;;;;;;;20.32;43.49;101851.03;5028285;28;20389;-79
2022/11/01 10:54:42;;;;;;;18.23;13.10;;;;;;;20.38;42.92;101848.34;5055474;28;20404;-79
2022/11/01 10:57:14;;;;;;;16.70;12.02;;;;;;;20.43;42.64;101842.31;5035317;28;20394;-80
2022/11/01 10:59:43;;;;;;;17.88;12.32;;;;;;;20.45;42.79;101842.94;5046312;28;20387;-79
2022/11/01 11:02:22;;;;;;;19.85;13.10;;;;;;;20.47;42.81;101838.16;5033537;28;20423;-79
2022/11/01 11:04:48;;;;;;;17.50;12.27;;;;;;;20.58;42.57;101836.69;5037718;28;20464;-80
2022/11/01 11:07:16;;;;;;;18.70;12.65;;;;;;;20.61;42.35;101830.94;5047678;28;20406;-81
2022/11/01 11:09:42;;;;;;;18.90;11.82;;;;;;;20.65;42.27;101831.34;5030352;28;20384;-78
2022/11/01 11:12:16;;;;;;;16.43;12.53;;;;;;;20.74;42.07;101827.38;5030270;28;20400;-78
2022/11/01 11:14:46;;;;;;;19.45;11.50;;;;;;;20.73;42.01;101820.34;5043463;28;20378;-78
2022/11/01 11:17:33;;;;;;;20.90;12.50;;;;;;;20.79;41.83;101817.63;5008358;28;20393;-81
2022/11/01 11:20:04;;;;;;;19.60;12.02;;;;;;;20.84;41.78;101816.19;5008825;28;20477;-79
2022/11/01 11:22:35;;;;;;;18.20;12.00;;;;;;;20.89;41.58;101816.38;5023416;28;20449;-79